createdAt,value
2022-11-22T00:02:30.710Z,95518.34
2022-11-22T00:07:34.396Z,95501.53
2022-11-22T00:12:38.324Z,95488.53
2022-11-22T00:17:43.287Z,95478.09
2022-11-22T00:22:46.778Z,95486.50
2022-11-22T00:27:50.352Z,95477.28
2022-11-22T00:32:55.284Z,95465.25
2022-11-22T00:37:58.826Z,95468.56
2022-11-22T00:43:02.305Z,95475.09
2022-11-22T00:48:07.761Z,95462.47
2022-11-22T00:53:11.327Z,95441.22
2022-11-22T00:58:15.072Z,95440.41
2022-11-22T01:03:20.100Z,95436.00
2022-11-22T01:08:24.191Z,95442.75
2022-11-22T01:13:29.633Z,95425.38
2022-11-22T01:18:35.000Z,95428.28
2022-11-22T01:23:38.614Z,95398.88
2022-11-22T01:28:42.346Z,95422.22
2022-11-22T01:33:47.236Z,95430.09
2022-11-22T01:38:50.731Z,95414.47
2022-11-22T01:43:54.368Z,95420.53
2022-11-22T01:49:04.155Z,95406.06
2022-11-22T01:54:11.004Z,95409.66
2022-11-22T01:59:19.604Z,95408.66
2022-11-22T02:04:28.238Z,95405.94
2022-11-22T02:09:33.631Z,95406.19
2022-11-22T02:14:39.551Z,95405.22
2022-11-22T02:19:46.822Z,95399.16
2022-11-22T02:24:56.767Z,95403.06
2022-11-22T02:30:01.707Z,95394.22
2022-11-22T02:35:18.533Z,95390.75
2022-11-22T02:40:23.356Z,95399.44
2022-11-22T02:45:28.584Z,95403.59
2022-11-22T02:50:32.260Z,95406.06
2022-11-22T02:55:36.256Z,95406.19
2022-11-22T03:00:42.096Z,95406.06
2022-11-22T03:05:45.933Z,95421.78
2022-11-22T03:10:49.515Z,95406.91
2022-11-22T03:15:54.495Z,95406.19
2022-11-22T03:21:03.443Z,95422.22
2022-11-22T03:26:11.068Z,95420.69
2022-11-22T03:31:15.953Z,95427.03
2022-11-22T03:36:19.825Z,95428.13
2022-11-22T03:41:23.540Z,95419.88
2022-11-22T03:46:28.494Z,95422.50
2022-11-22T03:51:32.196Z,95416.56
2022-11-22T03:56:35.803Z,95436.69
2022-11-22T04:01:40.829Z,95449.25
2022-11-22T04:06:44.462Z,95451.44
2022-11-22T04:11:48.049Z,95446.91
2022-11-22T04:16:53.080Z,95451.72
2022-11-22T04:21:56.725Z,95453.22
2022-11-22T04:27:00.324Z,95446.09
2022-11-22T04:32:22.789Z,95445.38
2022-11-22T04:37:26.427Z,95444.28
2022-11-22T04:42:47.183Z,95448.97
2022-11-22T04:48:01.273Z,95447.72
2022-11-22T04:53:05.151Z,95460.66
2022-11-22T04:58:08.802Z,95457.38
2022-11-22T05:03:14.319Z,95462.34
2022-11-22T05:08:17.970Z,95460.97
2022-11-22T05:13:24.383Z,95466.50
2022-11-22T05:18:31.780Z,95471.59
2022-11-22T05:23:53.830Z,95470.34
2022-11-22T05:28:58.187Z,95468.88
2022-11-22T05:34:03.914Z,95464.16
2022-11-22T05:39:07.940Z,95464.44
2022-11-22T05:44:11.879Z,95461.38
2022-11-22T05:49:16.965Z,95468.53
2022-11-22T05:54:20.854Z,95471.00
2022-11-22T05:59:24.550Z,95468.53
2022-11-22T06:04:33.673Z,95481.50
2022-11-22T06:09:37.323Z,95485.25
2022-11-22T06:14:43.464Z,95490.91
2022-11-22T06:19:48.672Z,95493.13
2022-11-22T06:24:52.196Z,95499.63
2022-11-22T06:29:55.777Z,95503.72
2022-11-22T06:35:01.117Z,95511.19
2022-11-22T06:40:07.337Z,95522.09
2022-11-22T06:45:11.789Z,95527.63
2022-11-22T06:50:21.554Z,95521.72
2022-11-22T06:55:49.183Z,95536.22
2022-11-22T07:00:49.101Z,95542.59
2022-11-22T07:05:54.256Z,95542.91
2022-11-22T07:11:03.175Z,95549.97
2022-11-22T07:16:08.555Z,95571.63
2022-11-22T07:21:15.445Z,95572.56
2022-11-22T07:26:22.324Z,95569.88
2022-11-22T07:31:26.159Z,95578.09
2022-11-22T07:36:32.262Z,95588.53
2022-11-22T07:41:35.713Z,95594.19
2022-11-22T07:46:39.241Z,95589.09
2022-11-22T07:51:44.178Z,95587.72
2022-11-22T07:56:47.833Z,95591.72
2022-11-22T08:01:51.525Z,95589.38
2022-11-22T08:06:56.447Z,95605.66
2022-11-22T08:11:59.936Z,95622.75
2022-11-22T08:17:03.769Z,95628.97
2022-11-22T08:22:08.793Z,95630.06
2022-11-22T08:27:12.260Z,95641.81
2022-11-22T08:32:15.780Z,95648.72
2022-11-22T08:37:20.814Z,95656.22
2022-11-22T08:42:24.598Z,95663.63
2022-11-22T08:47:28.033Z,95674.84
2022-11-22T08:52:33.080Z,95683.88
2022-11-22T08:57:36.815Z,95692.03
2022-11-22T09:02:40.354Z,95691.75
2022-11-22T09:13:08.986Z,95700.91
2022-11-22T09:18:12.518Z,95702.53
2022-11-22T09:23:17.524Z,95698.34
2022-11-22T09:28:21.031Z,95695.97
2022-11-22T09:33:24.663Z,95712.44
2022-11-22T09:38:30.056Z,95715.28
2022-11-22T09:43:43.362Z,95713.34
2022-11-22T09:49:14.605Z,95706.31
2022-11-22T09:54:25.079Z,95702.91
2022-11-22T09:59:33.763Z,95692.28
2022-11-22T10:04:41.846Z,95691.22
2022-11-22T10:09:55.822Z,95690.28
2022-11-22T10:15:04.879Z,95698.13
2022-11-22T10:20:16.153Z,95696.31
2022-11-22T10:25:23.290Z,95703.44
2022-11-22T10:30:27.103Z,95694.19
2022-11-22T10:35:58.603Z,95683.50
2022-11-22T10:41:10.613Z,95683.94
2022-11-22T10:46:21.598Z,95688.31
2022-11-22T10:51:33.179Z,95689.91
2022-11-22T10:56:44.250Z,95683.09
2022-11-22T11:01:58.766Z,95668.94
2022-11-22T11:07:12.011Z,95678.09
2022-11-22T11:12:22.137Z,95678.22
2022-11-22T11:17:29.575Z,95685.97
2022-11-22T11:23:12.562Z,95678.16
2022-11-22T11:28:05.427Z,95675.81
2022-11-22T11:33:21.539Z,95665.91
2022-11-22T11:38:37.069Z,95672.03
2022-11-22T11:43:45.319Z,95677.00
2022-11-22T11:48:49.586Z,95664.53
2022-11-22T11:53:58.526Z,95668.16
2022-11-22T11:59:08.880Z,95673.94
2022-11-22T12:04:20.492Z,95669.81
2022-11-22T12:09:31.223Z,95686.13
2022-11-22T12:15:09.158Z,95698.72
2022-11-22T12:20:05.585Z,95705.88
2022-11-22T12:25:37.327Z,95693.97
2022-11-22T12:30:46.511Z,95691.41
2022-11-22T12:35:55.314Z,95691.69
2022-11-22T12:41:02.996Z,95699.53
2022-11-22T12:46:12.782Z,95694.63
2022-11-22T12:51:24.479Z,95679.94
2022-11-22T12:56:33.627Z,95675.22
2022-11-22T13:01:47.087Z,95679.94
2022-11-22T13:06:58.586Z,95673.81
2022-11-22T13:12:07.190Z,95679.91
2022-11-22T13:17:13.993Z,95668.38
2022-11-22T13:22:27.171Z,95670.81
2022-11-22T13:27:34.524Z,95653.56
2022-11-22T13:32:43.373Z,95654.44
2022-11-22T13:37:50.166Z,95652.69
2022-11-22T13:43:47.479Z,95646.66
2022-11-22T13:49:15.074Z,95653.47
2022-11-22T13:55:15.203Z,95652.66
2022-11-22T14:00:42.895Z,95664.69
2022-11-22T14:05:49.918Z,95658.19
2022-11-22T14:11:09.928Z,95655.31
2022-11-22T14:16:40.018Z,95661.38
2022-11-22T14:22:08.862Z,95654.94
2022-11-22T14:27:28.298Z,95650.44
2022-11-22T14:32:43.892Z,95662.09
2022-11-22T14:37:59.396Z,95655.19
2022-11-22T14:43:31.790Z,95668.53
2022-11-22T14:48:46.057Z,95673.66
2022-11-22T14:53:55.106Z,95686.38
2022-11-22T14:59:13.486Z,95691.91
2022-11-22T15:09:15.366Z,95700.03
2022-11-22T15:10:36.912Z,95716.63
2022-11-22T15:59:50.030Z,95770.97
2022-11-22T16:06:06.891Z,95770.91
2022-11-22T16:10:23.054Z,95765.63
2022-11-22T16:15:30.890Z,95759.25
2022-11-22T16:20:37.096Z,95769.22
2022-11-22T16:25:42.858Z,95767.25
2022-11-22T16:30:48.437Z,95776.13
2022-11-22T16:35:56.160Z,95778.00
2022-11-22T16:41:02.582Z,95777.09
2022-11-22T16:46:07.718Z,95772.41
2022-11-22T16:51:15.611Z,95772.25
2022-11-22T16:56:21.745Z,95793.84
2022-11-22T17:01:28.262Z,95793.38
2022-11-22T17:06:33.128Z,95789.56
2022-11-22T17:11:36.681Z,95793.44
2022-11-22T17:16:42.806Z,95800.47
2022-11-22T17:21:49.146Z,95794.16
2022-11-22T17:26:53.731Z,95801.53
2022-11-22T17:31:59.023Z,95798.66
2022-11-22T17:37:03.006Z,95796.06
2022-11-22T17:42:06.752Z,95795.00
2022-11-22T17:47:11.728Z,95807.13
2022-11-22T17:52:15.805Z,95815.44
2022-11-22T17:57:19.396Z,95814.69
2022-11-22T18:02:30.104Z,95815.97
2022-11-22T18:07:38.031Z,95820.78
2022-11-22T18:12:58.766Z,95824.09
2022-11-22T18:18:48.547Z,95811.41
2022-11-22T18:23:41.127Z,95799.69
2022-11-22T18:28:49.715Z,95805.38
2022-11-22T18:34:02.790Z,95809.41
2022-11-22T18:39:07.123Z,95820.31
2022-11-22T18:44:11.654Z,95829.50
2022-11-22T18:49:17.543Z,95829.50
2022-11-22T18:54:40.090Z,95820.31
2022-11-22T18:59:43.788Z,95831.78
2022-11-22T19:04:51.573Z,95819.91
2022-11-22T19:09:55.177Z,95813.97
2022-11-22T19:15:03.133Z,95826.44
2022-11-22T19:20:39.358Z,95818.38
2022-11-22T19:25:43.344Z,95810.13
2022-11-22T19:30:57.505Z,95821.88
2022-11-22T19:36:12.189Z,95815.44
2022-11-22T19:41:23.040Z,95816.56
2022-11-22T19:46:31.013Z,95826.91
2022-11-22T19:51:40.135Z,95818.41
2022-11-22T19:56:45.477Z,95820.91
2022-11-22T20:01:51.221Z,95826.81
2022-11-22T20:07:08.794Z,95823.25
2022-11-22T20:12:12.892Z,95839.59
2022-11-22T20:17:16.789Z,95838.50
2022-11-22T20:22:22.550Z,95840.66
2022-11-22T20:27:35.778Z,95830.97
2022-11-22T20:32:44.174Z,95841.44
2022-11-22T20:37:55.722Z,95846.41
2022-11-22T20:43:04.368Z,95843.06
2022-11-22T20:48:10.460Z,95859.16
2022-11-22T20:53:19.180Z,95873.66
2022-11-22T20:58:23.247Z,95876.91
2022-11-22T21:03:32.070Z,95878.00
2022-11-22T21:08:37.369Z,95888.81
2022-11-22T21:13:47.409Z,95873.47
2022-11-22T21:18:54.499Z,95872.69
2022-11-22T21:24:01.994Z,95874.47
2022-11-22T21:29:15.863Z,95879.00
2022-11-22T21:34:20.415Z,95881.81
2022-11-22T21:39:25.688Z,95888.75
2022-11-22T21:44:29.775Z,95896.09
2022-11-22T21:49:35.444Z,95900.78
2022-11-22T21:54:40.933Z,95919.56
2022-11-22T21:59:44.635Z,95904.06
2022-11-22T22:04:48.277Z,95911.09
2022-11-22T22:09:53.278Z,95901.31
2022-11-22T22:14:56.959Z,95902.84
2022-11-22T22:20:00.597Z,95907.84
2022-11-22T22:25:06.813Z,95906.88
2022-11-22T22:30:15.934Z,95907.00
2022-11-22T22:35:19.449Z,95916.84
2022-11-22T22:40:27.921Z,95919.78
2022-11-22T22:45:31.533Z,95909.66
2022-11-22T22:50:35.379Z,95927.22
2022-11-22T22:55:40.402Z,95923.47
2022-11-22T23:00:43.980Z,95928.88
2022-11-22T23:05:47.561Z,95931.78
2022-11-22T23:10:52.585Z,95934.97
2022-11-22T23:15:58.954Z,95922.53
2022-11-22T23:21:03.910Z,95925.28
2022-11-22T23:26:10.997Z,95924.88
2022-11-22T23:31:16.741Z,95928.31
2022-11-22T23:36:22.162Z,95936.09
2022-11-22T23:41:27.142Z,95934.81
2022-11-22T23:46:30.848Z,95936.22
2022-11-22T23:51:37.387Z,95934.41
2022-11-22T23:56:42.950Z,95928.03
